Aviation Digital Data Service (ADDS)

Output produced by METARs form (0044 UTC 24 May 2022)
found at http://www.aviationweather.gov/metar/data/
 
OSAP 240000Z 28008KT CAVOK 17/12 Q1009
OSAP 232000Z 2400/2424 27008KT CAVOK 
     BECMG 2406/2408 27012KT 9999 FEW030
       
OSLK 240000Z 18008KT 9999 BKN030 20/15 Q1010
OSLK 232000Z 2400/2424 18015G25KT 6000RA FEW025CB BKN030 
     BECMG 2412/2414 21012KT 9999 FEW030
       
OSDI 240000Z 22014KT CAVOK 15/10 Q1012
OSDI 232000Z 2400/2506 26025KT 7000 FEW030 
     TEMPO 2400/2418 24025G35KT 6000 FEW030 SCT100